sensor_id;sensor_type;location;lat;lon;timestamp;pressure;altitude;pressure_sealevel;temperature;humidity
74675;BME280;63200;48.810;12.352;2023-03-23T00:00:57;96980.09;;;5.89;72.29
74675;BME280;63200;48.810;12.352;2023-03-23T00:03:23;96978.22;;;5.89;72.61
74675;BME280;63200;48.810;12.352;2023-03-23T00:05:51;96955.28;;;5.71;72.21
74675;BME280;63200;48.810;12.352;2023-03-23T00:08:20;96947.44;;;5.59;71.81
74675;BME280;63200;48.810;12.352;2023-03-23T00:10:50;96981.16;;;5.72;72.16
74675;BME280;63200;48.810;12.352;2023-03-23T00:13:18;96977.66;;;5.66;72.54
74675;BME280;63200;48.810;12.352;2023-03-23T00:15:46;96985.16;;;5.59;72.16
74675;BME280;63200;48.810;12.352;2023-03-23T00:18:14;96982.66;;;5.42;72.66
74675;BME280;63200;48.810;12.352;2023-03-23T00:20:56;96984.25;;;5.38;73.13
74675;BME280;63200;48.810;12.352;2023-03-23T00:23:25;96956.78;;;5.31;72.76
74675;BME280;63200;48.810;12.352;2023-03-23T00:25:53;96979.16;;;5.42;72.51
74675;BME280;63200;48.810;12.352;2023-03-23T00:28:22;96968.41;;;5.47;72.69
74675;BME280;63200;48.810;12.352;2023-03-23T00:30:54;96974.59;;;5.47;72.24
74675;BME280;63200;48.810;12.352;2023-03-23T00:33:22;96914.44;;;5.06;72.41
74675;BME280;63200;48.810;12.352;2023-03-23T00:35:49;96926.28;;;5.10;72.94
74675;BME280;63200;48.810;12.352;2023-03-23T00:38:17;96962.44;;;5.29;72.70
74675;BME280;63200;48.810;12.352;2023-03-23T00:40:43;96965.38;;;5.33;71.77
74675;BME280;63200;48.810;12.352;2023-03-23T00:43:08;96965.13;;;5.29;71.56
74675;BME280;63200;48.810;12.352;2023-03-23T00:45:38;96971.00;;;5.26;71.54
74675;BME280;63200;48.810;12.352;2023-03-23T00:48:04;96936.75;;;5.06;71.67
74675;BME280;63200;48.810;12.352;2023-03-23T00:50:30;96953.78;;;5.22;72.78
74675;BME280;63200;48.810;12.352;2023-03-23T00:52:56;96956.75;;;5.26;72.20
74675;BME280;63200;48.810;12.352;2023-03-23T00:55:22;96974.03;;;5.35;71.91
74675;BME280;63200;48.810;12.352;2023-03-23T00:57:47;96939.72;;;5.05;72.07
74675;BME280;63200;48.810;12.352;2023-03-23T01:00:15;96940.50;;;5.00;71.98
74675;BME280;63200;48.810;12.352;2023-03-23T01:02:41;96976.63;;;5.14;71.59
74675;BME280;63200;48.810;12.352;2023-03-23T01:05:10;96969.88;;;5.07;71.43
74675;BME280;63200;48.810;12.352;2023-03-23T01:07:35;96976.03;;;5.02;71.35
74675;BME280;63200;48.810;12.352;2023-03-23T01:10:01;96958.72;;;4.88;71.47
74675;BME280;63200;48.810;12.352;2023-03-23T01:12:27;96974.69;;;5.05;72.12
74675;BME280;63200;48.810;12.352;2023-03-23T01:14:52;96961.50;;;5.03;71.84
74675;BME280;63200;48.810;12.352;2023-03-23T01:17:18;96956.13;;;5.03;72.28
74675;BME280;63200;48.810;12.352;2023-03-23T01:19:44;96957.50;;;5.11;72.35
74675;BME280;63200;48.810;12.352;2023-03-23T01:22:09;96964.25;;;5.13;72.22
74675;BME280;63200;48.810;12.352;2023-03-23T01:24:34;96964.78;;;5.15;72.06
74675;BME280;63200;48.810;12.352;2023-03-23T01:27:00;96936.22;;;5.04;72.35
74675;BME280;63200;48.810;12.352;2023-03-23T01:29:32;96931.94;;;5.08;72.13
74675;BME280;63200;48.810;12.352;2023-03-23T01:31:57;96957.53;;;5.21;72.06
74675;BME280;63200;48.810;12.352;2023-03-23T01:34:23;96954.59;;;5.23;71.71
74675;BME280;63200;48.810;12.352;2023-03-23T01:36:48;96931.13;;;5.08;71.45
74675;BME280;63200;48.810;12.352;2023-03-23T01:39:13;96947.78;;;5.05;71.51
74675;BME280;63200;48.810;12.352;2023-03-23T01:41:39;96956.97;;;5.14;72.10
74675;BME280;63200;48.810;12.352;2023-03-23T01:46:56;96938.69;;;5.16;71.77
74675;BME280;63200;48.810;12.352;2023-03-23T01:49:25;96930.19;;;4.87;71.44
74675;BME280;63200;48.810;12.352;2023-03-23T01:51:55;96959.09;;;5.02;71.98
74675;BME280;63200;48.810;12.352;2023-03-23T01:54:23;96930.16;;;4.81;72.15
74675;BME280;63200;48.810;12.352;2023-03-23T01:57:02;96936.19;;;4.94;72.06
74675;BME280;63200;48.810;12.352;2023-03-23T01:59:29;96938.56;;;4.90;72.00
74675;BME280;63200;48.810;12.352;2023-03-23T02:01:56;96936.69;;;4.91;71.94
74675;BME280;63200;48.810;12.352;2023-03-23T02:04:23;96947.50;;;5.01;71.70
74675;BME280;63200;48.810;12.352;2023-03-23T02:06:51;96943.75;;;5.02;72.11
74675;BME280;63200;48.810;12.352;2023-03-23T02:09:18;96954.22;;;5.04;72.23
74675;BME280;63200;48.810;12.352;2023-03-23T02:11:44;96928.91;;;4.94;71.85
74675;BME280;63200;48.810;12.352;2023-03-23T02:14:11;96946.94;;;4.94;71.89
74675;BME280;63200;48.810;12.352;2023-03-23T02:16:55;96948.31;;;5.02;71.91
74675;BME280;63200;48.810;12.352;2023-03-23T02:33:11;96941.19;;;5.38;71.54
74675;BME280;63200;48.810;12.352;2023-03-23T02:35:50;96945.75;;;5.32;71.84
74675;BME280;63200;48.810;12.352;2023-03-23T02:38:22;96918.25;;;5.15;72.19
74675;BME280;63200;48.810;12.352;2023-03-23T02:40:53;96942.28;;;5.37;72.09
74675;BME280;63200;48.810;12.352;2023-03-23T02:43:22;96936.06;;;5.37;72.26
74675;BME280;63200;48.810;12.352;2023-03-23T02:45:50;96921.50;;;5.27;72.51
74675;BME280;63200;48.810;12.352;2023-03-23T02:48:18;96927.16;;;5.26;72.67
74675;BME280;63200;48.810;12.352;2023-03-23T02:50:48;96910.19;;;5.30;72.58
74675;BME280;63200;48.810;12.352;2023-03-23T02:53:18;96895.13;;;5.19;72.74
74675;BME280;63200;48.810;12.352;2023-03-23T02:55:46;96941.78;;;5.50;72.84
74675;BME280;63200;48.810;12.352;2023-03-23T02:58:13;96936.13;;;5.47;72.55
74675;BME280;63200;48.810;12.352;2023-03-23T03:00:40;96916.69;;;5.29;73.00
74675;BME280;63200;48.810;12.352;2023-03-23T03:03:10;96942.31;;;5.53;72.99
74675;BME280;63200;48.810;12.352;2023-03-23T03:11:12;96933.41;;;5.42;72.69
74675;BME280;63200;48.810;12.352;2023-03-23T03:21:34;96894.06;;;5.20;71.76
74675;BME280;63200;48.810;12.352;2023-03-23T03:24:03;96892.94;;;5.21;71.72
74675;BME280;63200;48.810;12.352;2023-03-23T03:26:30;96948.78;;;5.57;71.77
74675;BME280;63200;48.810;12.352;2023-03-23T03:28:57;96952.56;;;5.56;71.57
74675;BME280;63200;48.810;12.352;2023-03-23T03:31:32;96950.97;;;5.60;71.70
74675;BME280;63200;48.810;12.352;2023-03-23T03:33:59;96950.44;;;5.63;71.68
74675;BME280;63200;48.810;12.352;2023-03-23T03:36:29;96945.31;;;5.61;71.63
74675;BME280;63200;48.810;12.352;2023-03-23T03:39:02;96934.22;;;5.47;71.92
74675;BME280;63200;48.810;12.352;2023-03-23T03:41:33;96906.16;;;5.23;72.36
74675;BME280;63200;48.810;12.352;2023-03-23T03:43:59;96897.81;;;5.24;72.48
74675;BME280;63200;48.810;12.352;2023-03-23T03:46:24;96948.25;;;5.55;72.47
74675;BME280;63200;48.810;12.352;2023-03-23T03:48:52;96947.69;;;5.53;72.45
74675;BME280;63200;48.810;12.352;2023-03-23T03:51:17;96948.78;;;5.57;72.30
74675;BME280;63200;48.810;12.352;2023-03-23T03:53:43;96956.34;;;5.60;72.45
74675;BME280;63200;48.810;12.352;2023-03-23T03:56:08;96956.88;;;5.57;72.68
74675;BME280;63200;48.810;12.352;2023-03-23T03:58:33;96937.72;;;5.43;72.51
74675;BME280;63200;48.810;12.352;2023-03-23T04:01:02;96962.25;;;5.62;72.56
74675;BME280;63200;48.810;12.352;2023-03-23T04:03:28;96965.78;;;5.62;72.47
74675;BME280;63200;48.810;12.352;2023-03-23T04:05:54;96923.69;;;5.41;72.42
74675;BME280;63200;48.810;12.352;2023-03-23T04:08:24;96941.50;;;5.52;72.46
74675;BME280;63200;48.810;12.352;2023-03-23T04:10:49;96979.81;;;5.80;72.62
74675;BME280;63200;48.810;12.352;2023-03-23T04:13:15;96969.59;;;5.82;72.46
74675;BME280;63200;48.810;12.352;2023-03-23T04:15:41;96958.78;;;5.66;72.61
74675;BME280;63200;48.810;12.352;2023-03-23T04:18:06;96981.16;;;5.72;72.81
74675;BME280;63200;48.810;12.352;2023-03-23T04:20:32;96948.53;;;5.63;73.00
74675;BME280;63200;48.810;12.352;2023-03-23T04:23:00;96922.44;;;5.64;71.81
74675;BME280;63200;48.810;12.352;2023-03-23T04:25:27;96943.75;;;5.81;72.26
74675;BME280;63200;48.810;12.352;2023-03-23T04:27:53;96937.00;;;5.83;72.57
74675;BME280;63200;48.810;12.352;2023-03-23T04:30:23;96937.28;;;5.77;73.24
74675;BME280;63200;48.810;12.352;2023-03-23T04:32:50;96946.94;;;5.78;73.42
74675;BME280;63200;48.810;12.352;2023-03-23T04:35:18;96950.75;;;5.92;73.59
74675;BME280;63200;48.810;12.352;2023-03-23T04:37:44;96905.75;;;5.77;73.75
74675;BME280;63200;48.810;12.352;2023-03-23T04:40:10;96949.72;;;6.19;73.35
74675;BME280;63200;48.810;12.352;2023-03-23T04:42:40;96943.53;;;6.24;73.35
74675;BME280;63200;48.810;12.352;2023-03-23T04:45:07;96943.25;;;6.25;73.15
74675;BME280;63200;48.810;12.352;2023-03-23T04:47:36;96953.22;;;6.40;72.88
74675;BME280;63200;48.810;12.352;2023-03-23T04:50:11;96966.47;;;6.37;72.85
74675;BME280;63200;48.810;12.352;2023-03-23T04:52:37;96949.19;;;6.12;72.57
74675;BME280;63200;48.810;12.352;2023-03-23T04:55:04;96984.78;;;6.14;73.10
74675;BME280;63200;48.810;12.352;2023-03-23T04:57:31;96985.84;;;6.08;73.17
74675;BME280;63200;48.810;12.352;2023-03-23T04:59:57;96976.69;;;6.09;72.86
74675;BME280;63200;48.810;12.352;2023-03-23T05:02:22;96970.47;;;6.13;73.02
74675;BME280;63200;48.810;12.352;2023-03-23T05:04:47;96963.22;;;6.09;73.18
74675;BME280;63200;48.810;12.352;2023-03-23T05:07:14;96951.63;;;6.13;72.55
74675;BME280;63200;48.810;12.352;2023-03-23T05:09:40;96945.69;;;6.01;72.58
74675;BME280;63200;48.810;12.352;2023-03-23T05:12:09;96965.91;;;6.09;73.04
74675;BME280;63200;48.810;12.352;2023-03-23T05:14:34;96946.50;;;6.07;73.11
74675;BME280;63200;48.810;12.352;2023-03-23T05:17:00;96968.88;;;6.23;73.07
74675;BME280;63200;48.810;12.352;2023-03-23T05:19:26;96954.03;;;6.10;73.35
74675;BME280;63200;48.810;12.352;2023-03-23T05:21:53;96974.81;;;6.30;72.94
74675;BME280;63200;48.810;12.352;2023-03-23T05:24:19;96964.84;;;6.36;72.65
74675;BME280;63200;48.810;12.352;2023-03-23T05:26:44;96973.44;;;6.43;72.66
74675;BME280;63200;48.810;12.352;2023-03-23T05:29:13;96956.47;;;6.42;71.99
74675;BME280;63200;48.810;12.352;2023-03-23T05:31:38;96973.44;;;6.53;71.50
74675;BME280;63200;48.810;12.352;2023-03-23T05:34:05;96984.50;;;6.57;71.15
74675;BME280;63200;48.810;12.352;2023-03-23T05:36:30;96983.16;;;6.64;70.80
74675;BME280;63200;48.810;12.352;2023-03-23T05:38:55;96991.78;;;6.72;71.19
74675;BME280;63200;48.810;12.352;2023-03-23T05:41:22;96992.56;;;6.82;71.20
74675;BME280;63200;48.810;12.352;2023-03-23T05:43:48;96992.56;;;6.77;70.89
74675;BME280;63200;48.810;12.352;2023-03-23T05:46:13;96990.13;;;6.86;70.97
74675;BME280;63200;48.810;12.352;2023-03-23T05:48:39;96990.69;;;6.93;71.20
74675;BME280;63200;48.810;12.352;2023-03-23T05:51:05;96989.28;;;7.01;70.73
74675;BME280;63200;48.810;12.352;2023-03-23T05:53:30;96979.84;;;7.09;70.44
74675;BME280;63200;48.810;12.352;2023-03-23T05:56:00;96986.56;;;7.11;70.93
74675;BME280;63200;48.810;12.352;2023-03-23T05:58:26;96966.91;;;7.00;71.40
74675;BME280;63200;48.810;12.352;2023-03-23T06:00:52;96968.25;;;7.08;71.23
74675;BME280;63200;48.810;12.352;2023-03-23T06:03:17;96965.25;;;7.10;70.71
74675;BME280;63200;48.810;12.352;2023-03-23T06:05:43;96961.69;;;7.30;70.50
74675;BME280;63200;48.810;12.352;2023-03-23T06:08:11;96963.13;;;7.07;71.56
74675;BME280;63200;48.810;12.352;2023-03-23T06:10:37;96933.75;;;6.95;72.01
74675;BME280;63200;48.810;12.352;2023-03-23T06:13:04;96946.03;;;7.27;71.70
74675;BME280;63200;48.810;12.352;2023-03-23T06:15:30;96945.19;;;7.31;71.46
74675;BME280;63200;48.810;12.352;2023-03-23T06:18:01;96959.72;;;7.46;71.54
74675;BME280;63200;48.810;12.352;2023-03-23T06:20:26;96956.72;;;7.53;70.65
74675;BME280;63200;48.810;12.352;2023-03-23T06:22:52;96961.81;;;7.59;70.19
74675;BME280;63200;48.810;12.352;2023-03-23T06:25:18;96962.06;;;7.68;69.75
74675;BME280;63200;48.810;12.352;2023-03-23T06:27:44;96956.63;;;7.73;69.33
74675;BME280;63200;48.810;12.352;2023-03-23T06:30:11;96949.59;;;7.72;69.71
74675;BME280;63200;48.810;12.352;2023-03-23T06:32:37;96953.06;;;7.83;69.58
74675;BME280;63200;48.810;12.352;2023-03-23T06:35:04;96921.50;;;7.73;69.82
74675;BME280;63200;48.810;12.352;2023-03-23T06:37:29;96939.16;;;8.00;69.59
74675;BME280;63200;48.810;12.352;2023-03-23T06:39:55;96927.22;;;8.06;69.10
74675;BME280;63200;48.810;12.352;2023-03-23T06:42:22;96935.16;;;8.27;68.82
74675;BME280;63200;48.810;12.352;2023-03-23T06:44:50;96912.75;;;8.26;68.95
74675;BME280;63200;48.810;12.352;2023-03-23T06:47:15;96933.34;;;8.57;68.70
74675;BME280;63200;48.810;12.352;2023-03-23T06:49:41;96929.47;;;8.68;68.23
74675;BME280;63200;48.810;12.352;2023-03-23T06:52:06;96924.59;;;8.65;67.94
74675;BME280;63200;48.810;12.352;2023-03-23T06:54:32;96935.22;;;8.86;67.93
74675;BME280;63200;48.810;12.352;2023-03-23T06:56:57;96929.19;;;8.94;67.64
74675;BME280;63200;48.810;12.352;2023-03-23T06:59:22;96935.13;;;8.96;67.21
74675;BME280;63200;48.810;12.352;2023-03-23T07:01:47;96934.88;;;8.92;66.83
74675;BME280;63200;48.810;12.352;2023-03-23T07:04:13;96933.16;;;9.02;68.04
74675;BME280;63200;48.810;12.352;2023-03-23T07:06:39;96935.47;;;9.13;67.63
74675;BME280;63200;48.810;12.352;2023-03-23T07:09:04;96943.69;;;9.27;67.44
74675;BME280;63200;48.810;12.352;2023-03-23T07:11:30;96932.44;;;9.39;66.94
74675;BME280;63200;48.810;12.352;2023-03-23T07:13:55;96930.13;;;9.52;67.09
74675;BME280;63200;48.810;12.352;2023-03-23T07:16:21;96930.81;;;9.62;67.62
74675;BME280;63200;48.810;12.352;2023-03-23T07:18:46;96922.84;;;9.71;67.83
74675;BME280;63200;48.810;12.352;2023-03-23T07:21:12;96935.53;;;9.95;67.45
74675;BME280;63200;48.810;12.352;2023-03-23T07:23:37;96933.47;;;10.06;67.44
74675;BME280;63200;48.810;12.352;2023-03-23T07:26:03;96940.31;;;10.17;67.25
74675;BME280;63200;48.810;12.352;2023-03-23T07:28:29;96934.44;;;10.29;66.56
74675;BME280;63200;48.810;12.352;2023-03-23T07:30:54;96939.22;;;10.37;65.45
74675;BME280;63200;48.810;12.352;2023-03-23T07:33:20;96939.97;;;10.43;65.16
74675;BME280;63200;48.810;12.352;2023-03-23T07:35:45;96946.31;;;10.52;64.49
74675;BME280;63200;48.810;12.352;2023-03-23T07:38:10;96943.72;;;10.61;63.78
74675;BME280;63200;48.810;12.352;2023-03-23T07:40:36;96916.34;;;10.43;63.46
74675;BME280;63200;48.810;12.352;2023-03-23T07:43:03;96920.81;;;10.53;63.84
74675;BME280;63200;48.810;12.352;2023-03-23T07:45:30;96942.75;;;10.71;63.16
74675;BME280;63200;48.810;12.352;2023-03-23T07:47:56;96946.38;;;10.80;62.95
74675;BME280;63200;48.810;12.352;2023-03-23T07:50:21;96934.72;;;10.93;62.00
74675;BME280;63200;48.810;12.352;2023-03-23T07:52:49;96945.59;;;10.93;62.03
74675;BME280;63200;48.810;12.352;2023-03-23T07:55:16;96944.00;;;11.06;61.71
74675;BME280;63200;48.810;12.352;2023-03-23T07:57:45;96945.94;;;11.20;61.90
74675;BME280;63200;48.810;12.352;2023-03-23T08:00:13;96937.97;;;11.23;62.01
74675;BME280;63200;48.810;12.352;2023-03-23T08:02:47;96948.00;;;11.64;60.81
74675;BME280;63200;48.810;12.352;2023-03-23T08:05:14;96954.06;;;11.47;61.60
74675;BME280;63200;48.810;12.352;2023-03-23T08:07:40;96941.31;;;11.34;62.19
74675;BME280;63200;48.810;12.352;2023-03-23T08:10:07;96928.28;;;11.31;61.88
74675;BME280;63200;48.810;12.352;2023-03-23T08:12:36;96933.84;;;11.54;61.10
74675;BME280;63200;48.810;12.352;2023-03-23T08:15:02;96921.03;;;11.40;61.37
74675;BME280;63200;48.810;12.352;2023-03-23T08:17:27;96963.09;;;11.71;60.68
74675;BME280;63200;48.810;12.352;2023-03-23T08:19:53;96973.56;;;11.77;61.05
74675;BME280;63200;48.810;12.352;2023-03-23T08:22:18;96939.56;;;11.66;61.66
74675;BME280;63200;48.810;12.352;2023-03-23T08:24:44;96973.56;;;11.77;61.22
74675;BME280;63200;48.810;12.352;2023-03-23T08:27:09;96936.22;;;11.69;60.90
74675;BME280;63200;48.810;12.352;2023-03-23T08:29:35;96947.09;;;11.69;61.01
74675;BME280;63200;48.810;12.352;2023-03-23T08:32:00;96985.84;;;11.89;61.21
74675;BME280;63200;48.810;12.352;2023-03-23T08:34:27;96978.50;;;12.03;61.69
74675;BME280;63200;48.810;12.352;2023-03-23T08:36:54;96984.66;;;11.95;62.07
74675;BME280;63200;48.810;12.352;2023-03-23T08:39:20;96945.78;;;11.66;61.59
74675;BME280;63200;48.810;12.352;2023-03-23T08:41:48;96991.88;;;12.13;61.65
74675;BME280;63200;48.810;12.352;2023-03-23T08:44:13;96970.22;;;12.08;61.90
74675;BME280;63200;48.810;12.352;2023-03-23T08:46:39;96988.00;;;12.28;61.19
74675;BME280;63200;48.810;12.352;2023-03-23T08:49:04;96983.94;;;12.62;59.45
74675;BME280;63200;48.810;12.352;2023-03-23T08:51:31;96981.63;;;12.78;58.64
74675;BME280;63200;48.810;12.352;2023-03-23T08:53:56;96982.38;;;13.02;58.46
74675;BME280;63200;48.810;12.352;2023-03-23T08:56:21;96935.91;;;12.66;58.19
74675;BME280;63200;48.810;12.352;2023-03-23T08:58:47;96945.38;;;13.00;57.52
74675;BME280;63200;48.810;12.352;2023-03-23T09:01:14;96976.34;;;13.13;58.30
74675;BME280;63200;48.810;12.352;2023-03-23T09:03:39;96962.00;;;13.30;57.90
74675;BME280;63200;48.810;12.352;2023-03-23T09:06:07;96977.47;;;13.44;58.10
74675;BME280;63200;48.810;12.352;2023-03-23T09:08:33;96977.75;;;13.82;57.12
74675;BME280;63200;48.810;12.352;2023-03-23T09:10:59;96970.91;;;14.29;55.70
74675;BME280;63200;48.810;12.352;2023-03-23T09:13:25;96992.25;;;14.53;55.17
74675;BME280;63200;48.810;12.352;2023-03-23T09:15:50;96962.53;;;14.69;54.15
74675;BME280;63200;48.810;12.352;2023-03-23T09:18:18;96989.75;;;15.13;53.45
74675;BME280;63200;48.810;12.352;2023-03-23T09:20:43;96996.44;;;15.42;52.05
74675;BME280;63200;48.810;12.352;2023-03-23T09:23:09;96987.53;;;15.54;51.11
74675;BME280;63200;48.810;12.352;2023-03-23T09:25:35;97000.19;;;15.67;50.89
74675;BME280;63200;48.810;12.352;2023-03-23T09:28:00;96983.50;;;15.90;49.60
74675;BME280;63200;48.810;12.352;2023-03-23T09:30:31;96976.78;;;16.29;47.87
74675;BME280;63200;48.810;12.352;2023-03-23T09:32:59;96980.72;;;16.62;46.00
74675;BME280;63200;48.810;12.352;2023-03-23T09:35:26;96979.31;;;16.89;45.56
74675;BME280;63200;48.810;12.352;2023-03-23T09:37:53;96999.16;;;17.07;45.59
74675;BME280;63200;48.810;12.352;2023-03-23T09:40:21;96980.50;;;17.46;45.75
74675;BME280;63200;48.810;12.352;2023-03-23T09:43:00;96989.66;;;18.00;44.86
74675;BME280;63200;48.810;12.352;2023-03-23T09:45:39;96994.44;;;17.91;44.95
74675;BME280;63200;48.810;12.352;2023-03-23T09:48:27;96978.53;;;17.96;44.72
74675;BME280;63200;48.810;12.352;2023-03-23T09:51:07;96968.56;;;18.17;43.16
74675;BME280;63200;48.810;12.352;2023-03-23T09:53:43;96948.91;;;17.77;44.72
74675;BME280;63200;48.810;12.352;2023-03-23T09:56:13;96973.63;;;17.77;44.22
74675;BME280;63200;48.810;12.352;2023-03-23T10:02:10;96977.41;;;17.85;44.06
74675;BME280;63200;48.810;12.352;2023-03-23T10:04:44;96962.50;;;18.11;43.83
74675;BME280;63200;48.810;12.352;2023-03-23T10:07:18;96976.66;;;18.25;42.97
74675;BME280;63200;48.810;12.352;2023-03-23T10:09:46;96979.19;;;18.30;42.86
74675;BME280;63200;48.810;12.352;2023-03-23T10:12:31;96971.00;;;18.46;41.38
74675;BME280;63200;48.810;12.352;2023-03-23T10:17:45;96977.25;;;18.19;40.82
74675;BME280;63200;48.810;12.352;2023-03-23T10:22:48;96953.75;;;18.34;41.00
74675;BME280;63200;48.810;12.352;2023-03-23T10:25:19;96962.75;;;17.81;40.34
74675;BME280;63200;48.810;12.352;2023-03-23T10:27:55;96951.69;;;17.65;40.52
74675;BME280;63200;48.810;12.352;2023-03-23T10:30:33;96963.66;;;17.36;41.30
74675;BME280;63200;48.810;12.352;2023-03-23T10:35:50;96955.06;;;17.00;39.37
74675;BME280;63200;48.810;12.352;2023-03-23T10:38:25;96962.53;;;17.24;41.66
74675;BME280;63200;48.810;12.352;2023-03-23T10:41:03;96963.34;;;17.37;40.67
74675;BME280;63200;48.810;12.352;2023-03-23T10:43:31;96971.66;;;17.16;40.74
74675;BME280;63200;48.810;12.352;2023-03-23T10:46:00;96972.28;;;17.01;40.88
74675;BME280;63200;48.810;12.352;2023-03-23T10:48:31;96978.69;;;16.92;41.37
74675;BME280;63200;48.810;12.352;2023-03-23T10:51:00;96969.81;;;16.87;41.13
74675;BME280;63200;48.810;12.352;2023-03-23T10:53:37;96968.44;;;17.14;41.50
74675;BME280;63200;48.810;12.352;2023-03-23T10:56:03;96962.38;;;17.21;41.42
74675;BME280;63200;48.810;12.352;2023-03-23T10:58:34;96953.38;;;17.32;42.66
74675;BME280;63200;48.810;12.352;2023-03-23T11:01:03;96965.97;;;17.34;40.23
74675;BME280;63200;48.810;12.352;2023-03-23T11:03:41;96965.03;;;17.29;42.80
74675;BME280;63200;48.810;12.352;2023-03-23T11:06:09;96964.22;;;17.17;40.66
74675;BME280;63200;48.810;12.352;2023-03-23T11:08:46;96971.66;;;17.41;42.77
74675;BME280;63200;48.810;12.352;2023-03-23T11:13:56;96970.41;;;17.75;41.17
74675;BME280;63200;48.810;12.352;2023-03-23T11:16:24;96973.72;;;17.69;40.58
74675;BME280;63200;48.810;12.352;2023-03-23T11:18:50;96944.00;;;17.71;40.39
74675;BME280;63200;48.810;12.352;2023-03-23T11:21:17;96965.84;;;18.17;39.02
74675;BME280;63200;48.810;12.352;2023-03-23T11:23:53;96950.91;;;18.58;38.56
74675;BME280;63200;48.810;12.352;2023-03-23T11:28:56;96962.16;;;19.26;35.79
74675;BME280;63200;48.810;12.352;2023-03-23T11:31:24;96963.06;;;19.62;36.38
74675;BME280;63200;48.810;12.352;2023-03-23T11:33:58;96968.16;;;20.31;36.17
74675;BME280;63200;48.810;12.352;2023-03-23T11:36:51;96965.41;;;20.31;35.72
74675;BME280;63200;48.810;12.352;2023-03-23T11:42:20;96954.25;;;18.52;37.70
74675;BME280;63200;48.810;12.352;2023-03-23T11:44:46;96959.66;;;18.48;38.43
74675;BME280;63200;48.810;12.352;2023-03-23T11:47:22;96964.53;;;18.26;39.46
74675;BME280;63200;48.810;12.352;2023-03-23T11:52:46;96959.25;;;18.62;38.09
74675;BME280;63200;48.810;12.352;2023-03-23T11:55:28;96931.13;;;18.53;36.72
74675;BME280;63200;48.810;12.352;2023-03-23T11:58:00;96951.41;;;18.48;38.13
74675;BME280;63200;48.810;12.352;2023-03-23T12:00:27;96935.94;;;18.72;38.12
74675;BME280;63200;48.810;12.352;2023-03-23T12:03:04;96949.72;;;18.88;38.23
74675;BME280;63200;48.810;12.352;2023-03-23T12:06:05;96947.81;;;18.88;39.48
74675;BME280;63200;48.810;12.352;2023-03-23T12:11:20;96938.31;;;18.57;38.80
74675;BME280;63200;48.810;12.352;2023-03-23T12:22:05;96956.44;;;17.80;38.26
74675;BME280;63200;48.810;12.352;2023-03-23T12:24:45;96950.75;;;17.98;38.31
74675;BME280;63200;48.810;12.352;2023-03-23T12:38:28;96949.78;;;18.31;38.76
74675;BME280;63200;48.810;12.352;2023-03-23T12:41:05;96956.88;;;18.20;39.22
74675;BME280;63200;48.810;12.352;2023-03-23T12:43:53;96939.63;;;18.19;37.83
74675;BME280;63200;48.810;12.352;2023-03-23T12:46:58;96943.19;;;17.95;39.50
74675;BME280;63200;48.810;12.352;2023-03-23T12:49:46;96913.91;;;17.62;39.42
74675;BME280;63200;48.810;12.352;2023-03-23T12:57:27;96956.69;;;17.88;38.46
74675;BME280;63200;48.810;12.352;2023-03-23T13:00:07;96948.69;;;17.82;38.56
74675;BME280;63200;48.810;12.352;2023-03-23T13:02:46;96945.84;;;17.67;39.59
74675;BME280;63200;48.810;12.352;2023-03-23T13:08:02;96952.81;;;17.89;39.12
74675;BME280;63200;48.810;12.352;2023-03-23T13:10:34;96950.66;;;17.94;40.02
74675;BME280;63200;48.810;12.352;2023-03-23T13:13:02;96938.06;;;17.81;40.04
74675;BME280;63200;48.810;12.352;2023-03-23T13:15:33;96947.97;;;17.86;39.65
74675;BME280;63200;48.810;12.352;2023-03-23T13:18:17;96936.25;;;17.73;40.29
74675;BME280;63200;48.810;12.352;2023-03-23T13:20:56;96950.06;;;17.76;40.17
74675;BME280;63200;48.810;12.352;2023-03-23T13:23:27;96953.25;;;18.03;40.73
74675;BME280;63200;48.810;12.352;2023-03-23T13:28:24;96966.56;;;17.52;40.49
74675;BME280;63200;48.810;12.352;2023-03-23T13:33:20;96966.88;;;17.25;41.52
74675;BME280;63200;48.810;12.352;2023-03-23T13:35:48;96921.59;;;17.19;40.99
74675;BME280;63200;48.810;12.352;2023-03-23T13:38:21;96956.25;;;17.36;40.82
74675;BME280;63200;48.810;12.352;2023-03-23T13:40:50;96948.69;;;17.33;41.93
74675;BME280;63200;48.810;12.352;2023-03-23T13:43:26;96947.31;;;17.27;43.05
74675;BME280;63200;48.810;12.352;2023-03-23T13:45:52;96948.56;;;17.54;42.05
74675;BME280;63200;48.810;12.352;2023-03-23T13:48:21;96943.44;;;17.53;41.36
74675;BME280;63200;48.810;12.352;2023-03-23T13:53:44;96943.06;;;17.17;42.83
74675;BME280;63200;48.810;12.352;2023-03-23T13:56:20;96950.72;;;17.24;42.24
74675;BME280;63200;48.810;12.352;2023-03-23T13:58:51;96945.59;;;17.22;43.63
74675;BME280;63200;48.810;12.352;2023-03-23T14:01:31;96945.66;;;17.01;43.31
74675;BME280;63200;48.810;12.352;2023-03-23T14:03:59;96946.34;;;16.98;42.31
74675;BME280;63200;48.810;12.352;2023-03-23T14:06:26;96950.59;;;17.08;42.27
74675;BME280;63200;48.810;12.352;2023-03-23T14:09:04;96911.13;;;16.88;43.86
74675;BME280;63200;48.810;12.352;2023-03-23T14:11:32;96942.16;;;17.13;43.31
74675;BME280;63200;48.810;12.352;2023-03-23T14:14:07;96936.69;;;17.25;42.04
74675;BME280;63200;48.810;12.352;2023-03-23T14:16:41;96938.19;;;17.35;43.39
74675;BME280;63200;48.810;12.352;2023-03-23T14:19:17;96943.66;;;17.47;42.09
74675;BME280;63200;48.810;12.352;2023-03-23T14:21:50;96941.34;;;17.00;42.42
74675;BME280;63200;48.810;12.352;2023-03-23T14:24:21;96928.78;;;16.99;43.03
74675;BME280;63200;48.810;12.352;2023-03-23T14:26:52;96915.06;;;16.99;42.57
74675;BME280;63200;48.810;12.352;2023-03-23T14:29:20;96934.53;;;17.31;44.00
74675;BME280;63200;48.810;12.352;2023-03-23T14:31:51;96931.44;;;17.32;42.77
74675;BME280;63200;48.810;12.352;2023-03-23T14:34:22;96929.81;;;17.31;42.74